sensor_id;sensor_type;location;lat;lon;timestamp;P1;durP1;ratioP1;P2;durP2;ratioP2
42194;SDS011;27863;49.440;11.102;2024-03-25T00:01:00;3.73;;;2.53;;
42194;SDS011;27863;49.440;11.102;2024-03-25T00:04:00;3.13;;;2.53;;
42194;SDS011;27863;49.440;11.102;2024-03-25T00:07:01;4.57;;;3.07;;
42194;SDS011;27863;49.440;11.102;2024-03-25T00:10:02;3.90;;;2.20;;
42194;SDS011;27863;49.440;11.102;2024-03-25T00:13:03;2.50;;;2.23;;
42194;SDS011;27863;49.440;11.102;2024-03-25T00:16:04;2.97;;;2.77;;
42194;SDS011;27863;49.440;11.102;2024-03-25T00:19:06;2.33;;;1.93;;
42194;SDS011;27863;49.440;11.102;2024-03-25T00:22:06;4.33;;;2.60;;
42194;SDS011;27863;49.440;11.102;2024-03-25T00:25:07;3.27;;;2.93;;
42194;SDS011;27863;49.440;11.102;2024-03-25T00:28:08;3.27;;;2.50;;
42194;SDS011;27863;49.440;11.102;2024-03-25T00:31:10;4.17;;;2.77;;
42194;SDS011;27863;49.440;11.102;2024-03-25T00:34:10;5.10;;;3.47;;
42194;SDS011;27863;49.440;11.102;2024-03-25T00:37:10;3.57;;;2.63;;
42194;SDS011;27863;49.440;11.102;2024-03-25T00:40:11;7.37;;;2.83;;
42194;SDS011;27863;49.440;11.102;2024-03-25T00:43:13;3.47;;;2.90;;
42194;SDS011;27863;49.440;11.102;2024-03-25T00:46:14;4.37;;;3.03;;
42194;SDS011;27863;49.440;11.102;2024-03-25T00:49:15;3.13;;;2.83;;
42194;SDS011;27863;49.440;11.102;2024-03-25T00:52:15;5.17;;;2.67;;
42194;SDS011;27863;49.440;11.102;2024-03-25T00:55:16;3.10;;;2.70;;
42194;SDS011;27863;49.440;11.102;2024-03-25T00:58:17;3.10;;;2.77;;
42194;SDS011;27863;49.440;11.102;2024-03-25T01:01:18;2.80;;;2.60;;
42194;SDS011;27863;49.440;11.102;2024-03-25T01:04:19;4.97;;;2.80;;
42194;SDS011;27863;49.440;11.102;2024-03-25T01:07:19;4.60;;;2.87;;
42194;SDS011;27863;49.440;11.102;2024-03-25T01:10:20;3.70;;;3.30;;
42194;SDS011;27863;49.440;11.102;2024-03-25T01:13:21;2.80;;;2.60;;
42194;SDS011;27863;49.440;11.102;2024-03-25T01:16:22;2.50;;;2.10;;
42194;SDS011;27863;49.440;11.102;2024-03-25T01:19:22;3.30;;;2.77;;
42194;SDS011;27863;49.440;11.102;2024-03-25T01:22:23;2.57;;;2.37;;
42194;SDS011;27863;49.440;11.102;2024-03-25T01:25:24;3.00;;;2.63;;
42194;SDS011;27863;49.440;11.102;2024-03-25T01:28:25;3.53;;;2.83;;
42194;SDS011;27863;49.440;11.102;2024-03-25T01:31:26;3.33;;;2.93;;
42194;SDS011;27863;49.440;11.102;2024-03-25T01:34:27;5.10;;;3.37;;
42194;SDS011;27863;49.440;11.102;2024-03-25T01:37:29;3.53;;;2.60;;
42194;SDS011;27863;49.440;11.102;2024-03-25T01:40:30;2.70;;;2.50;;
42194;SDS011;27863;49.440;11.102;2024-03-25T01:43:31;3.33;;;2.67;;
42194;SDS011;27863;49.440;11.102;2024-03-25T01:46:31;3.53;;;3.17;;
42194;SDS011;27863;49.440;11.102;2024-03-25T01:49:32;6.97;;;2.80;;
42194;SDS011;27863;49.440;11.102;2024-03-25T01:52:32;2.97;;;2.37;;
42194;SDS011;27863;49.440;11.102;2024-03-25T01:55:34;3.30;;;3.00;;
42194;SDS011;27863;49.440;11.102;2024-03-25T01:58:35;2.40;;;2.20;;
42194;SDS011;27863;49.440;11.102;2024-03-25T02:01:37;3.33;;;3.03;;
42194;SDS011;27863;49.440;11.102;2024-03-25T02:04:38;4.67;;;3.07;;
42194;SDS011;27863;49.440;11.102;2024-03-25T02:07:39;3.03;;;2.80;;
42194;SDS011;27863;49.440;11.102;2024-03-25T02:10:41;5.63;;;2.27;;
42194;SDS011;27863;49.440;11.102;2024-03-25T02:13:42;5.03;;;3.93;;
42194;SDS011;27863;49.440;11.102;2024-03-25T02:16:42;5.17;;;3.40;;
42194;SDS011;27863;49.440;11.102;2024-03-25T02:19:43;3.77;;;2.57;;
42194;SDS011;27863;49.440;11.102;2024-03-25T02:22:43;2.73;;;2.30;;
42194;SDS011;27863;49.440;11.102;2024-03-25T02:25:49;3.90;;;2.70;;
42194;SDS011;27863;49.440;11.102;2024-03-25T02:28:52;2.93;;;2.57;;
42194;SDS011;27863;49.440;11.102;2024-03-25T02:31:59;3.57;;;2.90;;
42194;SDS011;27863;49.440;11.102;2024-03-25T02:35:03;2.87;;;2.63;;
42194;SDS011;27863;49.440;11.102;2024-03-25T02:38:06;5.77;;;3.00;;
42194;SDS011;27863;49.440;11.102;2024-03-25T02:41:07;3.43;;;2.87;;
42194;SDS011;27863;49.440;11.102;2024-03-25T02:44:07;4.03;;;3.27;;
42194;SDS011;27863;49.440;11.102;2024-03-25T02:47:08;3.40;;;2.90;;
42194;SDS011;27863;49.440;11.102;2024-03-25T02:50:12;3.17;;;2.63;;
42194;SDS011;27863;49.440;11.102;2024-03-25T02:53:12;2.63;;;2.43;;
42194;SDS011;27863;49.440;11.102;2024-03-25T02:56:14;3.27;;;3.00;;
42194;SDS011;27863;49.440;11.102;2024-03-25T02:59:16;6.63;;;2.63;;
42194;SDS011;27863;49.440;11.102;2024-03-25T03:02:16;5.37;;;2.83;;
42194;SDS011;27863;49.440;11.102;2024-03-25T03:05:17;3.47;;;3.17;;
42194;SDS011;27863;49.440;11.102;2024-03-25T03:08:17;3.00;;;2.70;;
42194;SDS011;27863;49.440;11.102;2024-03-25T03:11:18;4.57;;;3.03;;
42194;SDS011;27863;49.440;11.102;2024-03-25T03:14:21;3.57;;;3.27;;
42194;SDS011;27863;49.440;11.102;2024-03-25T03:17:23;3.50;;;3.20;;
42194;SDS011;27863;49.440;11.102;2024-03-25T03:20:24;3.27;;;2.73;;
42194;SDS011;27863;49.440;11.102;2024-03-25T03:23:24;5.17;;;3.23;;
42194;SDS011;27863;49.440;11.102;2024-03-25T03:26:24;4.17;;;3.17;;
42194;SDS011;27863;49.440;11.102;2024-03-25T03:29:28;3.70;;;3.10;;
42194;SDS011;27863;49.440;11.102;2024-03-25T03:32:29;3.33;;;3.03;;
42194;SDS011;27863;49.440;11.102;2024-03-25T03:35:32;5.83;;;4.13;;
42194;SDS011;27863;49.440;11.102;2024-03-25T03:38:33;7.10;;;6.40;;
42194;SDS011;27863;49.440;11.102;2024-03-25T03:41:34;4.07;;;3.67;;
42194;SDS011;27863;49.440;11.102;2024-03-25T03:44:36;3.70;;;3.40;;
42194;SDS011;27863;49.440;11.102;2024-03-25T03:47:36;3.83;;;3.37;;
42194;SDS011;27863;49.440;11.102;2024-03-25T03:50:37;4.10;;;3.80;;
42194;SDS011;27863;49.440;11.102;2024-03-25T03:53:38;4.07;;;3.67;;
42194;SDS011;27863;49.440;11.102;2024-03-25T03:56:38;3.90;;;3.57;;
42194;SDS011;27863;49.440;11.102;2024-03-25T03:59:39;4.07;;;3.73;;
42194;SDS011;27863;49.440;11.102;2024-03-25T04:02:39;4.73;;;3.73;;
42194;SDS011;27863;49.440;11.102;2024-03-25T04:05:40;10.67;;;4.43;;
42194;SDS011;27863;49.440;11.102;2024-03-25T04:08:40;5.73;;;4.37;;
42194;SDS011;27863;49.440;11.102;2024-03-25T04:11:41;4.23;;;3.93;;
42194;SDS011;27863;49.440;11.102;2024-03-25T04:14:42;5.57;;;4.40;;
42194;SDS011;27863;49.440;11.102;2024-03-25T04:17:42;4.37;;;3.90;;
42194;SDS011;27863;49.440;11.102;2024-03-25T04:20:46;5.97;;;4.60;;
42194;SDS011;27863;49.440;11.102;2024-03-25T04:23:48;5.43;;;4.93;;
42194;SDS011;27863;49.440;11.102;2024-03-25T04:26:49;4.30;;;3.70;;
42194;SDS011;27863;49.440;11.102;2024-03-25T04:29:49;6.73;;;4.37;;
42194;SDS011;27863;49.440;11.102;2024-03-25T04:32:50;4.67;;;3.83;;
42194;SDS011;27863;49.440;11.102;2024-03-25T04:35:51;9.03;;;4.77;;
42194;SDS011;27863;49.440;11.102;2024-03-25T04:38:51;4.33;;;3.93;;
42194;SDS011;27863;49.440;11.102;2024-03-25T04:41:52;5.57;;;5.13;;
42194;SDS011;27863;49.440;11.102;2024-03-25T04:44:52;8.60;;;5.13;;
42194;SDS011;27863;49.440;11.102;2024-03-25T04:47:55;8.10;;;4.20;;
42194;SDS011;27863;49.440;11.102;2024-03-25T04:50:55;5.20;;;4.70;;
42194;SDS011;27863;49.440;11.102;2024-03-25T04:53:56;4.83;;;4.07;;
42194;SDS011;27863;49.440;11.102;2024-03-25T04:56:56;4.83;;;4.53;;
42194;SDS011;27863;49.440;11.102;2024-03-25T04:59:57;5.33;;;4.83;;
42194;SDS011;27863;49.440;11.102;2024-03-25T05:02:58;4.50;;;4.20;;
42194;SDS011;27863;49.440;11.102;2024-03-25T05:05:58;5.83;;;4.37;;
42194;SDS011;27863;49.440;11.102;2024-03-25T05:08:59;6.30;;;4.03;;
42194;SDS011;27863;49.440;11.102;2024-03-25T05:12:00;5.77;;;5.17;;
42194;SDS011;27863;49.440;11.102;2024-03-25T05:15:00;5.30;;;4.80;;
42194;SDS011;27863;49.440;11.102;2024-03-25T05:18:01;5.17;;;4.73;;
42194;SDS011;27863;49.440;11.102;2024-03-25T05:21:02;7.17;;;5.37;;
42194;SDS011;27863;49.440;11.102;2024-03-25T05:24:02;5.93;;;5.33;;
42194;SDS011;27863;49.440;11.102;2024-03-25T05:27:03;8.10;;;6.03;;
42194;SDS011;27863;49.440;11.102;2024-03-25T05:30:05;5.90;;;5.30;;
42194;SDS011;27863;49.440;11.102;2024-03-25T05:33:05;6.47;;;5.07;;
42194;SDS011;27863;49.440;11.102;2024-03-25T05:36:06;5.10;;;4.60;;
42194;SDS011;27863;49.440;11.102;2024-03-25T05:39:07;5.77;;;5.27;;
42194;SDS011;27863;49.440;11.102;2024-03-25T05:42:08;5.93;;;5.43;;
42194;SDS011;27863;49.440;11.102;2024-03-25T05:45:09;5.43;;;4.83;;
42194;SDS011;27863;49.440;11.102;2024-03-25T05:48:10;5.50;;;5.00;;
42194;SDS011;27863;49.440;11.102;2024-03-25T05:51:10;6.13;;;5.00;;
42194;SDS011;27863;49.440;11.102;2024-03-25T05:54:11;4.50;;;4.10;;
42194;SDS011;27863;49.440;11.102;2024-03-25T05:57:11;7.73;;;5.80;;
42194;SDS011;27863;49.440;11.102;2024-03-25T06:00:12;5.53;;;5.03;;
42194;SDS011;27863;49.440;11.102;2024-03-25T06:03:13;5.43;;;4.97;;
42194;SDS011;27863;49.440;11.102;2024-03-25T06:06:14;6.30;;;4.90;;
42194;SDS011;27863;49.440;11.102;2024-03-25T06:09:14;9.07;;;4.33;;
42194;SDS011;27863;49.440;11.102;2024-03-25T06:12:15;7.20;;;5.23;;
42194;SDS011;27863;49.440;11.102;2024-03-25T06:15:15;4.77;;;4.30;;
42194;SDS011;27863;49.440;11.102;2024-03-25T06:18:16;4.37;;;4.07;;
42194;SDS011;27863;49.440;11.102;2024-03-25T06:21:17;12.43;;;4.63;;
42194;SDS011;27863;49.440;11.102;2024-03-25T06:24:17;4.37;;;4.00;;
42194;SDS011;27863;49.440;11.102;2024-03-25T06:27:18;4.90;;;4.40;;
42194;SDS011;27863;49.440;11.102;2024-03-25T06:30:22;4.73;;;4.10;;
42194;SDS011;27863;49.440;11.102;2024-03-25T06:33:42;4.13;;;3.70;;
42194;SDS011;27863;49.440;11.102;2024-03-25T06:37:01;3.13;;;2.93;;
42194;SDS011;27863;49.440;11.102;2024-03-25T06:40:01;4.33;;;2.83;;
42194;SDS011;27863;49.440;11.102;2024-03-25T06:43:03;4.43;;;2.80;;
42194;SDS011;27863;49.440;11.102;2024-03-25T06:46:07;2.97;;;2.60;;
42194;SDS011;27863;49.440;11.102;2024-03-25T06:49:08;4.25;;;2.75;;
42194;SDS011;27863;49.440;11.102;2024-03-25T06:52:09;3.83;;;2.70;;
42194;SDS011;27863;49.440;11.102;2024-03-25T06:55:09;3.70;;;2.85;;
42194;SDS011;27863;49.440;11.102;2024-03-25T06:58:10;4.07;;;3.08;;
42194;SDS011;27863;49.440;11.102;2024-03-25T07:01:11;4.38;;;2.85;;
42194;SDS011;27863;49.440;11.102;2024-03-25T07:04:15;2.78;;;2.58;;
42194;SDS011;27863;49.440;11.102;2024-03-25T07:07:16;4.15;;;2.65;;
42194;SDS011;27863;49.440;11.102;2024-03-25T07:10:16;3.75;;;2.58;;
42194;SDS011;27863;49.440;11.102;2024-03-25T07:13:19;3.63;;;2.45;;
42194;SDS011;27863;49.440;11.102;2024-03-25T07:16:20;3.30;;;2.17;;
42194;SDS011;27863;49.440;11.102;2024-03-25T07:19:20;2.50;;;2.30;;
42194;SDS011;27863;49.440;11.102;2024-03-25T07:22:21;2.75;;;2.38;;
42194;SDS011;27863;49.440;11.102;2024-03-25T07:25:22;2.67;;;1.75;;
42194;SDS011;27863;49.440;11.102;2024-03-25T07:28:25;5.05;;;2.05;;
42194;SDS011;27863;49.440;11.102;2024-03-25T07:31:26;4.25;;;2.67;;
42194;SDS011;27863;49.440;11.102;2024-03-25T07:34:28;3.15;;;2.20;;
42194;SDS011;27863;49.440;11.102;2024-03-25T07:37:29;4.05;;;2.25;;
42194;SDS011;27863;49.440;11.102;2024-03-25T07:40:29;3.92;;;2.67;;
42194;SDS011;27863;49.440;11.102;2024-03-25T07:43:31;1.83;;;1.33;;
42194;SDS011;27863;49.440;11.102;2024-03-25T07:46:32;1.58;;;1.20;;
42194;SDS011;27863;49.440;11.102;2024-03-25T07:49:34;2.78;;;1.55;;
42194;SDS011;27863;49.440;11.102;2024-03-25T07:52:34;3.00;;;1.40;;
42194;SDS011;27863;49.440;11.102;2024-03-25T07:55:40;2.17;;;1.48;;
42194;SDS011;27863;49.440;11.102;2024-03-25T07:58:41;5.03;;;1.67;;
42194;SDS011;27863;49.440;11.102;2024-03-25T08:01:41;3.45;;;1.30;;
42194;SDS011;27863;49.440;11.102;2024-03-25T08:04:45;2.38;;;1.40;;
42194;SDS011;27863;49.440;11.102;2024-03-25T08:07:46;1.88;;;0.98;;
42194;SDS011;27863;49.440;11.102;2024-03-25T08:10:48;1.50;;;1.08;;
42194;SDS011;27863;49.440;11.102;2024-03-25T08:13:48;2.00;;;1.30;;
42194;SDS011;27863;49.440;11.102;2024-03-25T08:16:49;1.75;;;1.17;;
42194;SDS011;27863;49.440;11.102;2024-03-25T08:19:50;2.90;;;1.10;;
42194;SDS011;27863;49.440;11.102;2024-03-25T08:22:51;1.23;;;1.10;;
42194;SDS011;27863;49.440;11.102;2024-03-25T08:25:52;4.22;;;1.33;;
42194;SDS011;27863;49.440;11.102;2024-03-25T08:28:53;4.97;;;1.38;;
42194;SDS011;27863;49.440;11.102;2024-03-25T08:31:53;2.90;;;1.45;;
42194;SDS011;27863;49.440;11.102;2024-03-25T08:34:57;2.60;;;1.40;;
42194;SDS011;27863;49.440;11.102;2024-03-25T08:37:58;1.83;;;1.13;;
42194;SDS011;27863;49.440;11.102;2024-03-25T08:40:59;2.92;;;1.27;;
42194;SDS011;27863;49.440;11.102;2024-03-25T08:43:59;2.35;;;1.50;;
42194;SDS011;27863;49.440;11.102;2024-03-25T08:47:00;2.25;;;1.08;;
42194;SDS011;27863;49.440;11.102;2024-03-25T08:50:01;1.50;;;1.25;;
42194;SDS011;27863;49.440;11.102;2024-03-25T08:53:02;3.40;;;1.38;;
42194;SDS011;27863;49.440;11.102;2024-03-25T08:56:03;1.75;;;1.10;;
42194;SDS011;27863;49.440;11.102;2024-03-25T08:59:06;2.15;;;1.10;;
42194;SDS011;27863;49.440;11.102;2024-03-25T09:02:09;1.45;;;1.30;;
42194;SDS011;27863;49.440;11.102;2024-03-25T09:05:11;1.65;;;1.38;;
42194;SDS011;27863;49.440;11.102;2024-03-25T09:08:13;2.72;;;1.40;;
42194;SDS011;27863;49.440;11.102;2024-03-25T09:11:14;1.40;;;1.17;;
42194;SDS011;27863;49.440;11.102;2024-03-25T09:14:14;3.13;;;1.13;;
42194;SDS011;27863;49.440;11.102;2024-03-25T09:17:15;2.92;;;1.23;;
42194;SDS011;27863;49.440;11.102;2024-03-25T09:20:17;1.60;;;1.15;;
42194;SDS011;27863;49.440;11.102;2024-03-25T09:23:19;2.47;;;1.00;;
42194;SDS011;27863;49.440;11.102;2024-03-25T09:26:20;1.47;;;1.10;;
42194;SDS011;27863;49.440;11.102;2024-03-25T09:29:21;2.20;;;1.80;;
42194;SDS011;27863;49.440;11.102;2024-03-25T09:32:23;3.50;;;1.60;;
42194;SDS011;27863;49.440;11.102;2024-03-25T09:35:26;2.50;;;1.77;;
42194;SDS011;27863;49.440;11.102;2024-03-25T09:38:26;2.97;;;2.00;;
42194;SDS011;27863;49.440;11.102;2024-03-25T09:41:28;2.60;;;1.80;;
42194;SDS011;27863;49.440;11.102;2024-03-25T09:44:31;1.63;;;1.53;;
42194;SDS011;27863;49.440;11.102;2024-03-25T09:47:32;5.37;;;1.80;;
42194;SDS011;27863;49.440;11.102;2024-03-25T09:50:34;2.47;;;1.73;;
42194;SDS011;27863;49.440;11.102;2024-03-25T09:53:35;2.23;;;1.90;;
42194;SDS011;27863;49.440;11.102;2024-03-25T09:56:35;2.47;;;1.63;;
42194;SDS011;27863;49.440;11.102;2024-03-25T09:59:39;2.30;;;2.03;;
42194;SDS011;27863;49.440;11.102;2024-03-25T10:02:41;3.57;;;1.87;;
42194;SDS011;27863;49.440;11.102;2024-03-25T10:05:41;3.03;;;1.97;;
42194;SDS011;27863;49.440;11.102;2024-03-25T10:08:42;2.60;;;1.47;;
42194;SDS011;27863;49.440;11.102;2024-03-25T10:11:43;2.27;;;1.50;;
42194;SDS011;27863;49.440;11.102;2024-03-25T10:15:14;2.63;;;1.90;;
42194;SDS011;27863;49.440;11.102;2024-03-25T10:18:16;1.90;;;1.60;;
42194;SDS011;27863;49.440;11.102;2024-03-25T10:21:19;1.80;;;1.70;;
42194;SDS011;27863;49.440;11.102;2024-03-25T10:24:20;1.73;;;1.23;;
42194;SDS011;27863;49.440;11.102;2024-03-25T10:27:21;1.70;;;1.33;;
42194;SDS011;27863;49.440;11.102;2024-03-25T10:30:22;1.60;;;1.40;;
42194;SDS011;27863;49.440;11.102;2024-03-25T10:33:24;2.73;;;2.30;;
42194;SDS011;27863;49.440;11.102;2024-03-25T10:36:25;1.67;;;1.57;;
42194;SDS011;27863;49.440;11.102;2024-03-25T10:39:27;3.13;;;1.50;;
42194;SDS011;27863;49.440;11.102;2024-03-25T10:42:29;1.83;;;1.37;;
42194;SDS011;27863;49.440;11.102;2024-03-25T10:45:31;2.27;;;1.83;;
42194;SDS011;27863;49.440;11.102;2024-03-25T10:48:35;2.10;;;1.33;;
42194;SDS011;27863;49.440;11.102;2024-03-25T10:51:37;2.37;;;1.80;;
42194;SDS011;27863;49.440;11.102;2024-03-25T10:54:40;1.60;;;1.50;;
42194;SDS011;27863;49.440;11.102;2024-03-25T10:57:42;2.47;;;1.73;;
42194;SDS011;27863;49.440;11.102;2024-03-25T11:00:45;2.87;;;1.47;;
42194;SDS011;27863;49.440;11.102;2024-03-25T11:03:47;1.37;;;1.27;;
42194;SDS011;27863;49.440;11.102;2024-03-25T11:06:48;2.47;;;1.47;;
42194;SDS011;27863;49.440;11.102;2024-03-25T11:09:49;2.63;;;1.80;;
42194;SDS011;27863;49.440;11.102;2024-03-25T11:12:49;1.67;;;1.20;;
42194;SDS011;27863;49.440;11.102;2024-03-25T11:15:50;1.67;;;1.23;;
42194;SDS011;27863;49.440;11.102;2024-03-25T11:18:51;2.17;;;1.40;;
42194;SDS011;27863;49.440;11.102;2024-03-25T11:21:52;1.50;;;1.40;;
42194;SDS011;27863;49.440;11.102;2024-03-25T11:24:54;2.30;;;1.47;;
42194;SDS011;27863;49.440;11.102;2024-03-25T11:27:56;2.20;;;1.47;;
42194;SDS011;27863;49.440;11.102;2024-03-25T11:30:56;1.60;;;1.17;;
42194;SDS011;27863;49.440;11.102;2024-03-25T11:34:02;3.33;;;1.60;;
42194;SDS011;27863;49.440;11.102;2024-03-25T11:37:05;1.60;;;1.10;;
42194;SDS011;27863;49.440;11.102;2024-03-25T11:40:06;2.13;;;1.37;;
42194;SDS011;27863;49.440;11.102;2024-03-25T11:43:09;6.23;;;4.40;;
42194;SDS011;27863;49.440;11.102;2024-03-25T11:46:11;1.80;;;1.40;;
42194;SDS011;27863;49.440;11.102;2024-03-25T11:49:12;1.97;;;1.57;;
42194;SDS011;27863;49.440;11.102;2024-03-25T11:52:14;1.97;;;1.27;;
42194;SDS011;27863;49.440;11.102;2024-03-25T11:55:17;2.13;;;1.37;;
42194;SDS011;27863;49.440;11.102;2024-03-25T11:58:19;1.70;;;1.43;;
42194;SDS011;27863;49.440;11.102;2024-03-25T12:01:20;1.83;;;1.50;;
42194;SDS011;27863;49.440;11.102;2024-03-25T12:04:20;2.03;;;1.43;;
42194;SDS011;27863;49.440;11.102;2024-03-25T12:07:26;1.90;;;1.50;;
42194;SDS011;27863;49.440;11.102;2024-03-25T12:10:26;1.50;;;1.33;;
42194;SDS011;27863;49.440;11.102;2024-03-25T12:13:48;1.93;;;1.57;;
42194;SDS011;27863;49.440;11.102;2024-03-25T12:16:49;2.93;;;2.10;;
42194;SDS011;27863;49.440;11.102;2024-03-25T12:23:04;2.33;;;1.33;;
42194;SDS011;27863;49.440;11.102;2024-03-25T12:26:05;1.57;;;1.37;;
42194;SDS011;27863;49.440;11.102;2024-03-25T12:29:07;1.73;;;1.20;;
42194;SDS011;27863;49.440;11.102;2024-03-25T12:32:11;2.43;;;1.80;;
42194;SDS011;27863;49.440;11.102;2024-03-25T12:35:13;2.37;;;2.00;;
42194;SDS011;27863;49.440;11.102;2024-03-25T12:38:25;2.87;;;1.70;;
42194;SDS011;27863;49.440;11.102;2024-03-25T12:41:27;2.23;;;1.40;;
42194;SDS011;27863;49.440;11.102;2024-03-25T12:44:29;1.20;;;1.10;;
42194;SDS011;27863;49.440;11.102;2024-03-25T12:47:30;1.20;;;1.10;;
42194;SDS011;27863;49.440;11.102;2024-03-25T12:50:34;1.70;;;1.30;;
42194;SDS011;27863;49.440;11.102;2024-03-25T12:53:36;3.43;;;2.00;;
42194;SDS011;27863;49.440;11.102;2024-03-25T12:56:39;2.30;;;1.60;;
42194;SDS011;27863;49.440;11.102;2024-03-25T12:59:43;1.37;;;1.20;;
42194;SDS011;27863;49.440;11.102;2024-03-25T13:02:45;1.30;;;1.20;;
42194;SDS011;27863;49.440;11.102;2024-03-25T13:05:45;1.30;;;1.20;;
42194;SDS011;27863;49.440;11.102;2024-03-25T13:08:51;1.97;;;0.90;;
42194;SDS011;27863;49.440;11.102;2024-03-25T13:11:51;2.07;;;1.17;;
42194;SDS011;27863;49.440;11.102;2024-03-25T13:14:53;1.63;;;1.50;;
42194;SDS011;27863;49.440;11.102;2024-03-25T13:17:54;2.40;;;1.70;;
42194;SDS011;27863;49.440;11.102;2024-03-25T13:20:54;2.57;;;1.53;;
42194;SDS011;27863;49.440;11.102;2024-03-25T13:23:56;2.20;;;1.40;;
42194;SDS011;27863;49.440;11.102;2024-03-25T13:26:56;1.70;;;1.37;;
42194;SDS011;27863;49.440;11.102;2024-03-25T13:29:58;1.87;;;1.53;;
42194;SDS011;27863;49.440;11.102;2024-03-25T13:32:58;2.03;;;1.50;;
42194;SDS011;27863;49.440;11.102;2024-03-25T13:35:59;2.57;;;1.50;;
42194;SDS011;27863;49.440;11.102;2024-03-25T13:38:59;2.13;;;1.47;;
42194;SDS011;27863;49.440;11.102;2024-03-25T13:42:00;2.00;;;1.33;;
42194;SDS011;27863;49.440;11.102;2024-03-25T13:45:01;2.37;;;1.70;;
42194;SDS011;27863;49.440;11.102;2024-03-25T13:48:03;1.30;;;1.20;;
42194;SDS011;27863;49.440;11.102;2024-03-25T13:51:03;1.27;;;1.17;;
42194;SDS011;27863;49.440;11.102;2024-03-25T13:54:04;1.90;;;1.30;;
42194;SDS011;27863;49.440;11.102;2024-03-25T13:57:04;1.47;;;1.37;;
42194;SDS011;27863;49.440;11.102;2024-03-25T14:00:05;1.87;;;1.60;;
42194;SDS011;27863;49.440;11.102;2024-03-25T14:03:12;1.90;;;1.80;;
42194;SDS011;27863;49.440;11.102;2024-03-25T14:06:12;1.53;;;1.43;;
42194;SDS011;27863;49.440;11.102;2024-03-25T14:09:23;1.93;;;1.20;;
42194;SDS011;27863;49.440;11.102;2024-03-25T14:12:26;1.87;;;1.53;;
42194;SDS011;27863;49.440;11.102;2024-03-25T14:15:30;1.37;;;1.27;;
42194;SDS011;27863;49.440;11.102;2024-03-25T14:18:31;1.47;;;1.33;;
42194;SDS011;27863;49.440;11.102;2024-03-25T14:21:33;2.13;;;1.50;;
42194;SDS011;27863;49.440;11.102;2024-03-25T14:24:35;2.10;;;1.47;;
42194;SDS011;27863;49.440;11.102;2024-03-25T14:27:36;1.40;;;1.30;;
42194;SDS011;27863;49.440;11.102;2024-03-25T14:30:37;1.17;;;1.03;;
42194;SDS011;27863;49.440;11.102;2024-03-25T14:33:37;3.23;;;1.83;;
42194;SDS011;27863;49.440;11.102;2024-03-25T14:36:38;2.37;;;1.43;;
42194;SDS011;27863;49.440;11.102;2024-03-25T14:39:38;4.93;;;1.50;;
42194;SDS011;27863;49.440;11.102;2024-03-25T14:42:39;2.60;;;1.70;;
42194;SDS011;27863;49.440;11.102;2024-03-25T14:45:40;1.50;;;1.40;;
42194;SDS011;27863;49.440;11.102;2024-03-25T14:48:40;1.70;;;1.50;;
42194;SDS011;27863;49.440;11.102;2024-03-25T14:51:41;2.77;;;1.50;;
42194;SDS011;27863;49.440;11.102;2024-03-25T14:54:41;1.80;;;1.40;;
42194;SDS011;27863;49.440;11.102;2024-03-25T14:57:43;1.30;;;1.17;;
42194;SDS011;27863;49.440;11.102;2024-03-25T15:00:44;1.67;;;1.50;;
42194;SDS011;27863;49.440;11.102;2024-03-25T15:03:45;1.30;;;1.20;;
42194;SDS011;27863;49.440;11.102;2024-03-25T15:06:45;2.67;;;1.30;;
42194;SDS011;27863;49.440;11.102;2024-03-25T15:09:46;1.20;;;1.10;;
42194;SDS011;27863;49.440;11.102;2024-03-25T15:12:46;1.57;;;1.17;;
42194;SDS011;27863;49.440;11.102;2024-03-25T15:15:48;1.40;;;1.20;;
42194;SDS011;27863;49.440;11.102;2024-03-25T15:18:50;1.10;;;1.07;;
42194;SDS011;27863;49.440;11.102;2024-03-25T15:21:54;1.77;;;1.27;;
42194;SDS011;27863;49.440;11.102;2024-03-25T15:24:54;1.37;;;1.27;;
42194;SDS011;27863;49.440;11.102;2024-03-25T15:27:55;1.60;;;1.10;;
42194;SDS011;27863;49.440;11.102;2024-03-25T15:30:56;2.17;;;1.33;;
42194;SDS011;27863;49.440;11.102;2024-03-25T15:33:56;1.63;;;1.53;;
42194;SDS011;27863;49.440;11.102;2024-03-25T15:36:57;1.20;;;1.10;;
42194;SDS011;27863;49.440;11.102;2024-03-25T15:39:57;1.30;;;1.10;;
42194;SDS011;27863;49.440;11.102;2024-03-25T15:42:58;1.73;;;1.00;;
42194;SDS011;27863;49.440;11.102;2024-03-25T15:46:01;1.20;;;1.10;;
42194;SDS011;27863;49.440;11.102;2024-03-25T15:49:05;1.33;;;1.20;;
42194;SDS011;27863;49.440;11.102;2024-03-25T15:52:05;2.27;;;1.57;;
42194;SDS011;27863;49.440;11.102;2024-03-25T15:55:06;1.20;;;1.10;;
42194;SDS011;27863;49.440;11.102;2024-03-25T15:58:08;1.90;;;0.90;;
42194;SDS011;27863;49.440;11.102;2024-03-25T16:01:09;2.73;;;1.33;;
42194;SDS011;27863;49.440;11.102;2024-03-25T16:04:10;1.20;;;1.10;;
42194;SDS011;27863;49.440;11.102;2024-03-25T16:07:12;1.00;;;0.83;;
42194;SDS011;27863;49.440;11.102;2024-03-25T16:10:14;1.00;;;0.90;;
42194;SDS011;27863;49.440;11.102;2024-03-25T16:13:15;3.80;;;1.20;;
42194;SDS011;27863;49.440;11.102;2024-03-25T16:16:16;3.37;;;1.30;;
42194;SDS011;27863;49.440;11.102;2024-03-25T16:19:19;16.93;;;2.87;;
42194;SDS011;27863;49.440;11.102;2024-03-25T16:22:20;1.10;;;0.83;;
42194;SDS011;27863;49.440;11.102;2024-03-25T16:25:21;1.33;;;0.97;;
42194;SDS011;27863;49.440;11.102;2024-03-25T16:28:24;1.30;;;1.13;;
42194;SDS011;27863;49.440;11.102;2024-03-25T16:31:25;8.10;;;2.30;;
42194;SDS011;27863;49.440;11.102;2024-03-25T16:34:28;1.53;;;0.87;;
42194;SDS011;27863;49.440;11.102;2024-03-25T16:37:29;1.53;;;0.97;;
42194;SDS011;27863;49.440;11.102;2024-03-25T16:40:29;2.50;;;2.00;;
42194;SDS011;27863;49.440;11.102;2024-03-25T16:43:31;0.90;;;0.90;;
42194;SDS011;27863;49.440;11.102;2024-03-25T16:46:32;2.50;;;1.73;;
42194;SDS011;27863;49.440;11.102;2024-03-25T16:49:32;1.27;;;1.03;;
42194;SDS011;27863;49.440;11.102;2024-03-25T16:52:34;2.90;;;1.30;;
42194;SDS011;27863;49.440;11.102;2024-03-25T16:55:36;1.30;;;1.20;;
42194;SDS011;27863;49.440;11.102;2024-03-25T16:58:37;2.73;;;1.60;;
42194;SDS011;27863;49.440;11.102;2024-03-25T17:01:38;1.77;;;1.63;;
42194;SDS011;27863;49.440;11.102;2024-03-25T17:04:38;1.57;;;1.30;;
42194;SDS011;27863;49.440;11.102;2024-03-25T17:07:40;4.17;;;1.40;;
42194;SDS011;27863;49.440;11.102;2024-03-25T17:10:41;2.13;;;1.60;;
42194;SDS011;27863;49.440;11.102;2024-03-25T17:13:41;2.93;;;1.27;;
42194;SDS011;27863;49.440;11.102;2024-03-25T17:16:42;2.77;;;1.67;;
42194;SDS011;27863;49.440;11.102;2024-03-25T17:19:44;1.90;;;0.70;;
42194;SDS011;27863;49.440;11.102;2024-03-25T17:22:46;1.27;;;1.10;;
42194;SDS011;27863;49.440;11.102;2024-03-25T17:25:47;2.90;;;1.17;;
42194;SDS011;27863;49.440;11.102;2024-03-25T17:28:48;1.30;;;1.20;;
42194;SDS011;27863;49.440;11.102;2024-03-25T17:31:49;1.03;;;0.67;;
42194;SDS011;27863;49.440;11.102;2024-03-25T17:34:49;1.70;;;1.17;;
42194;SDS011;27863;49.440;11.102;2024-03-25T17:37:50;0.90;;;0.80;;
42194;SDS011;27863;49.440;11.102;2024-03-25T17:40:50;0.87;;;0.80;;
42194;SDS011;27863;49.440;11.102;2024-03-25T17:43:50;1.80;;;1.10;;
42194;SDS011;27863;49.440;11.102;2024-03-25T17:46:51;1.97;;;1.50;;
42194;SDS011;27863;49.440;11.102;2024-03-25T17:49:52;1.40;;;1.23;;
42194;SDS011;27863;49.440;11.102;2024-03-25T17:52:52;1.77;;;1.13;;
42194;SDS011;27863;49.440;11.102;2024-03-25T17:55:53;2.53;;;1.73;;
42194;SDS011;27863;49.440;11.102;2024-03-25T17:58:56;2.27;;;1.73;;